Flight Track Log - Related Links

Times and Time Zones

All times are in EST time to prevent confusion due to time zone crossing. See the N400DR flight status page for this flight to view local times or setup timezone preferences in your user account.


Time Position Orientation Groundspeed Altitude Reporting Facility
EST Latitude Longitude Course Direction KTS MPH feet Rate Location/Type
Sun 07:56:15 AM 39.9925 -82.9003 228° Southwest 107 123 1,200  Level Indianapolis Center
Sun 07:56:27 AM 39.9875 -82.9075 228° Southwest 120 138 1,400 1,167 Climbing Indianapolis Center
Sun 07:57:27 AM 39.9517 -82.8883 158° South 156 180 2,600 1,029 Climbing Indianapolis Center
Sun 07:58:12 AM 39.9331 -82.8675 139° Southeast 150 173 3,200 1,082 Climbing Indianapolis Center
Sun 07:58:28 AM 39.9147 -82.8578 158° South 163 188 3,700 1,279 Climbing Indianapolis Center
Sun 07:59:13 AM 39.8842 -82.8542 175° South 153 176 4,500 1,082 Climbing Indianapolis Center
Sun 07:59:29 AM 39.8733 -82.8511 168° South 150 173 4,800 1,180 Climbing Indianapolis Center
Sun 08:00:14 AM 39.8422 -82.8447 171° South 153 176 5,700 1,200 Climbing Indianapolis Center
Sun 08:00:29 AM 39.8319 -82.8447 180° South 152 175 6,000 984 Climbing Indianapolis Center
Sun 08:01:15 AM 39.8000 -82.8364 169° South 152 175 6,700 962 Climbing Indianapolis Center
Sun 08:02:15 AM 39.7544 -82.8264 170° South 161 185 7,700 992 Climbing Indianapolis Center
Sun 08:03:16 AM 39.7089 -82.8172 171° South 164 189 8,700 934 Climbing Indianapolis Center
Sun 08:04:17 AM 39.6644 -82.8094 172° South 163 188 9,600 885 Climbing Indianapolis Center
Sun 08:05:18 AM 39.6186 -82.8003 171° South 165 190 10,500 885 Climbing Indianapolis Center
Sun 08:06:19 AM 39.5717 -82.7908 171° South 170 196 11,400 738 Climbing Indianapolis Center
Sun 08:07:20 AM 39.5225 -82.7811 171° South 176 203 12,000 295 Climbing Indianapolis Center
Sun 08:08:21 AM 39.4656 -82.7689 171° South 200 230 12,000  Level Indianapolis Center
Sun 08:09:22 AM 39.4069 -82.7575 171° South 211 243 12,000  Level Indianapolis Center
Sun 08:10:23 AM 39.3514 -82.7461 171° South 206 237 12,000  Level Indianapolis Center
Sun 08:11:24 AM 39.2969 -82.7344 171° South 201 231 12,000  Level Indianapolis Center
Sun 08:12:25 AM 39.2411 -82.7236 171° South 201 231 12,000 49 Level Indianapolis Center
Sun 08:13:26 AM 39.1742 -82.7089 170° South 204 235 12,100 49 Climbing Indianapolis Center
Sun 08:14:27 AM 39.1275 -82.7003 172° South 203 234 12,100  Level Indianapolis Center
Sun 08:15:28 AM 39.0689 -82.6886 171° South 211 243 12,100  Level Indianapolis Center
Sun 08:16:29 AM 38.9997 -82.6750 171° South 209 241 12,100  Level Indianapolis Center
Sun 08:17:31 AM 38.9431 -82.6628 170° South 207 238 12,100 -49 Level Indianapolis Center
Sun 08:18:32 AM 38.8847 -82.6511 171° South 210 242 12,000 -49 Descending Indianapolis Center
Sun 08:19:33 AM 38.8278 -82.6400 171° South 208 239 12,000  Level Indianapolis Center
Sun 08:20:34 AM 38.7706 -82.6286 171° South 206 237 12,000  Level Indianapolis Center
Sun 08:21:35 AM 38.7144 -82.6181 172° South 203 234 12,000  Level Indianapolis Center
Sun 08:22:36 AM 38.6592 -82.6064 171° South 202 232 12,000  Level Indianapolis Center
Sun 08:23:37 AM 38.5992 -82.5961 172° South 200 230 12,000  Level Indianapolis Center
Sun 08:24:38 AM 38.5442 -82.5844 171° South 200 230 12,000  Level Indianapolis Center
Sun 08:25:39 AM 38.4881 -82.5719 170° South 204 235 12,000  Level Indianapolis Center
Sun 08:26:40 AM 38.4333 -82.5625 172° South 199 229 12,000  Level Indianapolis Center
Sun 08:27:42 AM 38.3783 -82.5517 171° South 198 228 12,000  Level Indianapolis Center
Sun 08:28:43 AM 38.3228 -82.5411 172° South 201 231 12,000  Level Indianapolis Center
Sun 08:29:44 AM 38.2678 -82.5297 171° South 200 230 12,000  Level Indianapolis Center
Sun 08:30:45 AM 38.2128 -82.5186 171° South 199 229 12,000  Level Indianapolis Center
Sun 08:31:46 AM 38.1569 -82.5086 172° South 202 232 12,000  Level Indianapolis Center
Sun 08:32:47 AM 38.0917 -82.4953 171° South 203 234 12,000  Level Indianapolis Center
Sun 08:33:48 AM 38.0361 -82.4853 172° South 202 232 12,000  Level Indianapolis Center
Sun 08:34:49 AM 37.9806 -82.4756 172° South 203 234 12,000  Level Indianapolis Center
Sun 08:35:51 AM 37.9236 -82.4644 171° South 205 236 12,000 49 Level Indianapolis Center
Sun 08:36:52 AM 37.8686 -82.4542 172° South 202 232 12,100  Climbing Indianapolis Center
Sun 08:37:53 AM 37.8119 -82.4417 170° South 205 236 12,000 -49 Descending Indianapolis Center
Sun 08:38:54 AM 37.7556 -82.4308 171° South 204 235 12,000  Level Indianapolis Center
Sun 08:39:55 AM 37.7000 -82.4206 172° South 200 230 12,000  Level Indianapolis Center
Sun 08:40:57 AM 37.6433 -82.4097 171° South 204 235 12,000  Level Indianapolis Center
Sun 08:41:58 AM 37.5869 -82.4000 172° South 203 234 12,000  Level Indianapolis Center
Sun 08:42:59 AM 37.5292 -82.3886 171° South 208 239 12,000  Level Indianapolis Center
Sun 08:44:00 AM 37.4619 -82.3758 171° South 208 239 12,000  Level Indianapolis Center
Sun 08:45:01 AM 37.4039 -82.3647 171° South 209 241 12,000 49 Level Indianapolis Center
Sun 08:46:02 AM 37.3453 -82.3531 171° South 211 243 12,100  Climbing Indianapolis Center
Sun 08:47:04 AM 37.2869 -82.3425 172° South 211 243 12,000 -49 Descending Indianapolis Center
Sun 08:48:05 AM 37.2283 -82.3306 171° South 212 244 12,000  Level Indianapolis Center
Sun 08:49:06 AM 37.1697 -82.3200 172° South 212 244 12,000  Level Indianapolis Center
Sun 08:50:07 AM 37.1100 -82.3089 172° South 214 246 12,000 49 Level Indianapolis Center
Sun 08:51:08 AM 37.0514 -82.2978 171° South 213 245 12,100  Climbing Indianapolis Center
Sun 08:52:09 AM 36.9944 -82.2869 171° South 207 238 12,000 -49 Descending Indianapolis Center
Sun 08:53:11 AM 36.9364 -82.2769 172° South 209 241 12,000  Level Indianapolis Center
Sun 08:54:12 AM 36.8789 -82.2656 171° South 208 239 12,000  Level Indianapolis Center
Sun 08:55:13 AM 36.8217 -82.2544 171° South 207 238 12,000  Level Indianapolis Center
Sun 08:56:14 AM 36.7556 -82.2428 172° South 205 236 12,000  Level Indianapolis Center
Sun 08:57:15 AM 36.6986 -82.2322 172° South 206 237 12,000  Level Indianapolis Center
Sun 08:58:17 AM 36.6425 -82.2214 171° South 205 236 12,000 49 Level Indianapolis Center
Sun 08:59:18 AM 36.5858 -82.2111 172° South 204 235 12,100 49 Climbing Indianapolis Center
Sun 09:00:19 AM 36.5292 -82.2006 171° South 205 236 12,100  Level Indianapolis Center
Sun 09:01:21 AM 36.4725 -82.1894 171° South 204 235 12,100  Level Indianapolis Center
Sun 09:02:22 AM 36.4158 -82.1797 172° South 206 237 12,100  Level Indianapolis Center
Sun 09:03:30 AM 36.3486 -82.1672 171° South 205 236 12,100  Level Atlanta Center
Sun 09:04:30 AM 36.2919 -82.1583 173° South 199 229 12,100  Level Atlanta Center
Sun 09:05:30 AM 36.2378 -82.1492 172° South 199 229 12,100  Level Atlanta Center
Sun 09:06:30 AM 36.1833 -82.1378 170° South 199 229 12,100 -50 Level Atlanta Center
Sun 09:07:30 AM 36.1289 -82.1261 170° South 199 229 12,000  Descending Atlanta Center
Sun 09:08:30 AM 36.0767 -82.1169 172° South 199 229 12,100 50 Climbing Atlanta Center
Sun 09:09:30 AM 36.0222 -82.1081 172° South 199 229 12,100  Level Atlanta Center
Sun 09:10:30 AM 35.9678 -82.0967 170° South 199 229 12,100  Level Atlanta Center
Sun 09:11:30 AM 35.9156 -82.0875 172° South 199 229 12,100  Level Atlanta Center
Sun 09:12:30 AM 35.8611 -82.0761 170° South 199 229 12,100  Level Atlanta Center
Sun 09:13:30 AM 35.8067 -82.0697 175° South 199 229 12,100 -50 Level Atlanta Center
Sun 09:14:30 AM 35.7567 -82.0606 172° South 199 229 12,000 -50 Descending Atlanta Center
Sun 09:15:30 AM 35.7064 -82.0492 170° South 193 222 12,000 -50 Level Atlanta Center
Sun 09:16:30 AM 35.6561 -82.0428 174° South 193 222 11,900  Descending Atlanta Center
Sun 09:17:30 AM 35.6039 -82.0311 170° South 188 216 12,000 50 Climbing Atlanta Center
Sun 09:18:30 AM 35.5556 -82.0222 171° South 188 216 12,000 -50 Level Atlanta Center
Sun 09:19:30 AM 35.4992 -82.0133 173° South 188 216 11,900 -50 Descending Atlanta Center
Sun 09:20:30 AM 35.4489 -82.0069 174° South 198 228 11,900 50 Level Atlanta Center
Sun 09:21:30 AM 35.3944 -81.9903 166° South 198 228 12,000 50 Climbing Atlanta Center
Sun 09:22:30 AM 35.3442 -81.9839 174° South 193 222 12,000  Level Atlanta Center
Sun 09:23:30 AM 35.2942 -81.9775 174° South 193 222 12,000  Level Atlanta Center
Sun 09:24:30 AM 35.2439 -81.9661 170° South 188 216 12,000  Level Atlanta Center
Sun 09:25:30 AM 35.1914 -81.9547 170° South 188 216 12,000  Level Atlanta Center
Sun 09:26:30 AM 35.1414 -81.9561 181° South 188 216 12,000  Level Atlanta Center
Sun 09:27:30 AM 35.0872 -81.9547 179° South 188 216 12,000  Level Atlanta Center
Sun 09:28:30 AM 35.0369 -81.9511 177° South 188 216 12,000  Level Atlanta Center
Sun 09:29:30 AM 34.9828 -81.9550 183° South 194 223 12,000  Level Atlanta Center
Sun 09:30:30 AM 34.9306 -81.9564 181° South 194 223 12,000  Level Atlanta Center
Sun 09:31:30 AM 34.8786 -81.9575 181° South 194 223 12,000  Level Atlanta Center
Sun 09:32:30 AM 34.8242 -81.9539 177° South 194 223 12,000  Level Atlanta Center
Sun 09:33:30 AM 34.7719 -81.9525 179° South 194 223 12,000  Level Atlanta Center
Sun 09:34:30 AM 34.7200 -81.9564 184° South 194 223 12,000  Level Atlanta Center
Sun 09:35:30 AM 34.6656 -81.9578 181° South 194 223 12,000  Level Atlanta Center
Sun 09:36:30 AM 34.6136 -81.9567 179° South 194 223 12,000  Level Atlanta Center
Sun 09:37:30 AM 34.5592 -81.9578 181° South 194 223 12,000  Level Atlanta Center
Sun 09:38:30 AM 34.5092 -81.9567 179° South 194 223 12,000  Level Atlanta Center
Sun 09:39:30 AM 34.4569 -81.9553 179° South 194 223 12,000  Level Atlanta Center
Sun 09:40:30 AM 34.4047 -81.9542 179° South 194 223 12,000  Level Atlanta Center
Sun 09:41:30 AM 34.3483 -81.9556 181° South 194 223 12,000  Level Atlanta Center
Sun 09:42:30 AM 34.2942 -81.9544 179° South 194 223 12,000  Level Atlanta Center
Sun 09:43:30 AM 34.2442 -81.9556 181° South 194 223 12,000  Level Atlanta Center
Sun 09:44:30 AM 34.1897 -81.9569 181° South 194 223 12,000  Level Atlanta Center
Sun 09:45:30 AM 34.1378 -81.9558 179° South 194 223 12,000  Level Atlanta Center
Sun 09:46:30 AM 34.0875 -81.9569 181° South 194 223 12,000  Level Atlanta Center
Sun 09:47:30 AM 34.0353 -81.9558 179° South 194 223 12,000  Level Atlanta Center
Sun 09:48:30 AM 33.9811 -81.9569 181° South 194 223 12,000  Level Atlanta Center
Sun 09:49:30 AM 33.9289 -81.9583 181° South 194 223 12,000  Level Atlanta Center
Sun 09:50:30 AM 33.8767 -81.9569 179° South 194 223 12,000  Level Atlanta Center
Sun 09:51:30 AM 33.8225 -81.9583 181° South 194 223 12,000  Level Atlanta Center
Sun 09:52:30 AM 33.7725 -81.9569 179° South 194 223 12,000  Level Atlanta Center
Sun 09:53:30 AM 33.7203 -81.9583 181° South 194 223 12,000  Level Atlanta Center
Sun 09:54:30 AM 33.6681 -81.9572 179° South 194 223 12,000  Level Atlanta Center
Sun 09:55:30 AM 33.6158 -81.9558 179° South 194 223 12,000  Level Atlanta Center
Sun 09:56:30 AM 33.5636 -81.9572 181° South 194 223 12,000  Level Atlanta Center
Sun 09:57:30 AM 33.5136 -81.9583 181° South 194 223 12,000  Level Atlanta Center
Sun 09:59:33 AM 33.4072 -81.9594 180° South 197 227 12,000  Level Jacksonville Center
Sun 10:00:33 AM 33.3531 -81.9600 180° South 197 227 12,000  Level Jacksonville Center
Sun 10:01:33 AM 33.3028 -81.9631 183° South 197 227 12,000  Level Jacksonville Center
Sun 10:02:33 AM 33.2508 -81.9611 178° South 197 227 12,000  Level Jacksonville Center
Sun 10:03:33 AM 33.2047 -81.9617 181° South 197 227 12,000  Level Jacksonville Center
Sun 10:04:33 AM 33.1525 -81.9597 178° South 197 227 12,000  Level Jacksonville Center
Sun 10:05:33 AM 33.1025 -81.9603 181° South 192 221 12,000  Level Jacksonville Center
Sun 10:06:33 AM 33.0503 -81.9608 181° South 192 221 12,000  Level Jacksonville Center
Sun 10:07:33 AM 32.9981 -81.9614 181° South 187 215 12,000  Level Jacksonville Center
Sun 10:08:33 AM 32.9500 -81.9617 180° South 187 215 12,000  Level Jacksonville Center
Sun 10:09:33 AM 32.8981 -81.9622 181° South 187 215 12,000  Level Jacksonville Center
Sun 10:10:33 AM 32.8478 -81.9628 181° South 187 215 12,000  Level Jacksonville Center
Sun 10:11:33 AM 32.7956 -81.9633 181° South 187 215 12,000  Level Jacksonville Center
Sun 10:12:33 AM 32.7456 -81.9639 181° South 187 215 12,000  Level Jacksonville Center
Sun 10:13:33 AM 32.6933 -81.9644 181° South 187 215 12,000  Level Jacksonville Center
Sun 10:14:33 AM 32.6369 -81.9650 180° South 187 215 12,000  Level Jacksonville Center
Sun 10:15:33 AM 32.5847 -81.9656 181° South 182 209 12,000  Level Jacksonville Center
Sun 10:16:33 AM 32.5369 -81.9636 178° South 182 209 12,000  Level Jacksonville Center
Sun 10:17:33 AM 32.4806 -81.9667 183° South 192 221 12,000  Level Jacksonville Center
Sun 10:18:33 AM 32.4325 -81.9647 178° South 199 229 12,000  Level Jacksonville Center
Sun 10:19:33 AM 32.3719 -81.9653 180° South 193 222 12,000  Level Jacksonville Center
Sun 10:20:33 AM 32.3197 -81.9658 181° South 198 228 12,000  Level Jacksonville Center
Sun 10:21:33 AM 32.2739 -81.9664 181° South 198 228 12,000  Level Jacksonville Center
Sun 10:22:33 AM 32.2153 -81.9669 180° South 198 228 12,000  Level Jacksonville Center
Sun 10:23:33 AM 32.1672 -81.9672 180° South 198 228 12,000  Level Jacksonville Center
Sun 10:24:33 AM 32.1111 -81.9678 180° South 193 222 12,000  Level Jacksonville Center
Sun 10:25:33 AM 32.0589 -81.9683 181° South 193 222 12,000  Level Jacksonville Center
Sun 10:26:33 AM 32.0128 -81.9664 178° South 193 222 12,000  Level Jacksonville Center
Sun 10:27:33 AM 31.9544 -81.9669 180° South 193 222 12,000  Level Jacksonville Center
Sun 10:28:33 AM 31.9044 -81.9747 188° South 198 228 12,000  Level Jacksonville Center
Sun 10:29:33 AM 31.8542 -81.9778 183° South 192 221 12,000  Level Jacksonville Center
Sun 10:30:33 AM 31.8022 -81.9856 187° South 192 221 12,000  Level Jacksonville Center
Sun 10:31:33 AM 31.7561 -81.9908 186° South 192 221 12,000  Level Jacksonville Center
Sun 10:32:33 AM 31.6978 -81.9939 183° South 197 227 12,000  Level Jacksonville Center
Sun 10:33:33 AM 31.6456 -81.9994 185° South 197 227 12,000  Level Jacksonville Center
Sun 10:34:33 AM 31.5997 -82.0022 183° South 197 227 12,000  Level Jacksonville Center
Sun 10:35:33 AM 31.5414 -82.0100 186° South 197 227 12,000  Level Jacksonville Center
Sun 10:36:33 AM 31.4892 -82.0156 185° South 191 220 12,000 -50 Level Jacksonville Center
Sun 10:37:33 AM 31.4350 -82.0208 185° South 196 226 11,900 -50 Descending Jacksonville Center
Sun 10:38:33 AM 31.3847 -82.0239 183° South 186 214 11,900  Level Jacksonville Center
Sun 10:39:33 AM 31.3347 -82.0292 185° South 191 220 11,900  Level Jacksonville Center
Sun 10:40:33 AM 31.2806 -82.0344 185° South 191 220 11,900  Level Jacksonville Center
Sun 10:41:33 AM 31.2303 -82.0372 183° South 191 220 11,900 94 Level Jacksonville Center
Sun 10:41:37 AM 31.2283 -82.0372 180° South 187 215 12,000  Climbing Jacksonville Center
Sun 10:42:33 AM 31.1783 -82.0428 185° South 191 220 11,900  Descending Jacksonville Center
Sun 10:42:38 AM 31.1761 -82.0428 180° South 185 213 12,000 100 Climbing Jacksonville Center
Sun 10:43:33 AM 31.1281 -82.0481 185° South 191 220 12,000  Level Jacksonville Center
Sun 10:43:51 AM 31.1136 -82.0481 180° South 182 209 12,000  Level Jacksonville Center
Sun 10:44:33 AM 31.0758 -82.0533 187° South 191 220 12,000  Level Jacksonville Center
Sun 10:44:40 AM 31.0717 -82.0533 180° South 184 212 12,000  Level Jacksonville Center
Sun 10:45:33 AM 31.0239 -82.0561 183° South 191 220 12,000  Level Jacksonville Center
Sun 10:45:47 AM 31.0133 -82.0564 181° South 186 214 12,000  Level Jacksonville Center
Sun 10:46:33 AM 30.9736 -82.0614 186° South 191 220 12,000  Level Jacksonville Center
Sun 10:46:48 AM 30.9633 -82.0617 181° South 183 211 12,000  Level Jacksonville Center
Sun 10:47:33 AM 30.9236 -82.0667 186° South 186 214 12,000  Level Jacksonville Center
Sun 10:47:55 AM 30.9047 -82.0694 187° South 183 211 12,000  Level Jacksonville Center
Sun 10:48:33 AM 30.8736 -82.0697 180° South 186 214 12,000  Level Jacksonville Center
Sun 10:48:50 AM 30.8589 -82.0722 188° South 180 207 12,000  Level Jacksonville Center
Sun 10:49:33 AM 30.8214 -82.0750 184° South 181 208 12,000  Level Jacksonville Center
Sun 10:49:58 AM 30.8047 -82.0775 187° South 183 211 12,000  Level Jacksonville Center
Sun 10:50:33 AM 30.7733 -82.0803 184° South 181 208 12,000  Level Jacksonville Center
Sun 10:50:52 AM 30.7567 -82.0828 187° South 183 211 12,000  Level Jacksonville Center
Sun 10:51:33 AM 30.7211 -82.0856 184° South 181 208 12,000  Level Jacksonville Center
Sun 10:51:59 AM 30.6983 -82.0881 185° South 183 211 12,000  Level Jacksonville Center
Sun 10:53:00 AM 30.6481 -82.0908 183° South 184 212 12,000  Level Jacksonville Center
Sun 10:54:01 AM 30.5961 -82.0986 187° South 184 212 12,000  Level Jacksonville Center
Sun 10:55:02 AM 30.5417 -82.1014 183° South 184 212 12,000  Level Jacksonville Center
Sun 10:55:46 AM 30.5083 -82.1042 184° South 182 209 12,000  Level Jacksonville Center
Sun 10:56:58 AM 30.4478 -82.1094 184° South 180 207 12,000 -43 Level Jacksonville Center
Sun 10:58:06 AM 30.3914 -82.1147 185° South 180 207 11,900 -308 Descending Jacksonville Center
Sun 10:58:55 AM 30.3497 -82.1197 186° South 189 217 11,400 -600 Descending Jacksonville Center
Sun 10:59:56 AM 30.2872 -82.1181 179° South 206 237 10,800 -585 Descending Jacksonville Center
Sun 11:00:58 AM 30.2308 -82.1183 180° South 207 238 10,200 -564 Descending Jacksonville Center
Sun 11:01:53 AM 30.1786 -82.1214 183° South 206 237 9,700 -590 Descending Jacksonville Center
Sun 11:03:00 AM 30.1158 -82.1242 182° South 205 236 9,000 -344 Descending Jacksonville Center
Sun 11:03:55 AM 30.0658 -82.1197 176° South 195 224 9,000  Level Jacksonville Center
Sun 11:05:08 AM 30.0033 -82.1228 182° South 184 212 9,000  Level Jacksonville Center
Sun 11:06:09 AM 29.9469 -82.1231 180° South 183 211 9,000  Level Jacksonville Center
Sun 11:07:10 AM 29.8967 -82.1211 178° South 185 213 9,000  Level Jacksonville Center
Sun 11:08:11 AM 29.8425 -82.1217 181° South 186 214 9,000  Level Jacksonville Center
Sun 11:09:12 AM 29.7903 -82.1219 180° South 185 213 9,000  Level Jacksonville Center
Sun 11:10:13 AM 29.7381 -82.1247 183° South 184 212 9,000  Level Jacksonville Center
Sun 11:11:14 AM 29.6881 -82.1228 178° South 184 212 9,000  Level Jacksonville Center
Sun 11:12:09 AM 29.6400 -82.1256 183° South 184 212 9,000  Level Jacksonville Center
Sun 11:13:10 AM 29.5878 -82.1236 178° South 181 208 9,000  Level Jacksonville Center
Sun 11:14:11 AM 29.5417 -82.1119 168° South 179 206 9,000  Level Jacksonville Center
Sun 11:15:12 AM 29.4997 -82.0814 148° Southeast 185 213 9,000  Level Jacksonville Center
Sun 11:16:13 AM 29.4517 -82.0483 149° Southeast 184 212 9,000  Level Jacksonville Center
Sun 11:17:14 AM 29.4036 -82.0533 185° South 175 201 9,000  Level Jacksonville Center
Sun 11:18:15 AM 29.3536 -82.0564 183° South 174 200 9,000  Level Jacksonville Center
Sun 11:19:15 AM 29.3056 -82.0614 185° South 174 200 9,000  Level Jacksonville Center
Sun 11:20:16 AM 29.2575 -82.0667 185° South 176 203 9,000  Level Jacksonville Center
Sun 11:21:11 AM 29.2117 -82.0717 185° South 176 203 9,000  Level Jacksonville Center
Sun 11:22:12 AM 29.1617 -82.0794 188° South 176 203 9,000  Level Jacksonville Center
Sun 11:23:19 AM 29.1053 -82.0822 182° South 176 203 9,000  Level Jacksonville Center
Sun 11:24:20 AM 29.0553 -82.0897 187° South 175 201 9,000  Level Jacksonville Center
Sun 11:25:27 AM 29.0011 -82.0950 185° South 172 198 9,000  Level Jacksonville Center
Sun 11:26:28 AM 28.9553 -82.1025 188° South 171 197 9,000  Level Jacksonville Center
Sun 11:27:29 AM 28.9050 -82.1053 183° South 175 201 9,000  Level Jacksonville Center
Sun 11:28:31 AM 28.8572 -82.1128 188° South 175 201 9,000  Level Jacksonville Center
Sun 11:29:31 AM 28.8092 -82.1153 183° South 177 204 9,000  Level Jacksonville Center
Sun 11:30:32 AM 28.7550 -82.1253 189° South 178 205 9,000  Level Jacksonville Center
Sun 11:32:22 AM 28.6667 -82.1333 185° South 174 200 9,000  Level Tampa TRACON
Sun 11:33:16 AM 28.6333 -82.1333 180° South 173 199 9,000  Level Tampa TRACON
Sun 11:34:16 AM 28.5833 -82.1167 164° South 179 206 9,000  Level Tampa TRACON
Sun 11:35:16 AM 28.5333 -82.1167 180° South 179 206 9,000  Level Tampa TRACON
Sun 11:36:16 AM 28.4833 -82.1000 164° South 178 205 9,000  Level Tampa TRACON
Sun 11:37:10 AM 28.4333 -82.1000 180° South 177 204 9,000  Level Tampa TRACON
Sun 11:38:16 AM 28.3833 -82.0833 164° South 176 203 9,000  Level Tampa TRACON
Sun 11:39:16 AM 28.3333 -82.0833 180° South 179 206 9,000  Level Tampa TRACON
Sun 11:40:16 AM 28.2833 -82.0667 164° South 176 203 9,000  Level Tampa TRACON
Sun 11:41:17 AM 28.2333 -82.0667 180° South 178 205 9,000  Level Tampa TRACON
Sun 11:42:17 AM 28.1833 -82.0500 164° South 179 206 9,000  Level Tampa TRACON
Sun 11:43:11 AM 28.1333 -82.0333 164° South 180 207 9,000  Level Tampa TRACON
Sun 11:44:16 AM 28.0833 -82.0333 180° South 183 211 9,000  Level Tampa TRACON
Sun 11:45:11 AM 28.0333 -82.0167 164° South 183 211 9,000  Level Tampa TRACON
Sun 11:46:11 AM 27.9833 -82.0167 180° South 184 212 9,000  Level Tampa TRACON
Sun 11:47:11 AM 27.9333 -82.0167 180° South 180 207 9,000  Level Tampa TRACON
Sun 11:49:14 AM 27.8414 -81.9992 170° South 141 162 9,000  Level Miami Center
Sun 11:50:14 AM 27.7856 -81.9894 171° South 183 211 9,000  Level Miami Center
Sun 11:51:14 AM 27.7397 -81.9806 170° South 189 217 9,000  Level Miami Center
Sun 11:52:14 AM 27.6928 -81.9572 156° South 189 217 9,000  Level Miami Center
Sun 11:53:14 AM 27.6414 -81.9314 156° South 184 212 9,000  Level Miami Center
Sun 11:54:14 AM 27.5964 -81.9083 156° South 189 217 9,000  Level Miami Center
Sun 11:55:14 AM 27.5533 -81.8856 155° Southeast 189 217 9,000 -200 Level Miami Center
Sun 11:56:14 AM 27.5019 -81.8644 160° South 189 217 8,600 -500 Descending Miami Center
Sun 11:57:14 AM 27.4525 -81.8436 159° South 189 217 8,000 -600 Descending Miami Center
Sun 11:58:14 AM 27.4033 -81.8181 155° Southeast 189 217 7,400 -600 Descending Miami Center
Sun 11:59:14 AM 27.3542 -81.7925 155° Southeast 189 217 6,800 -600 Descending Miami Center
Sun 12:00:14 PM 27.3028 -81.7694 158° South 189 217 6,200 -600 Descending Miami Center
Sun 12:01:14 PM 27.2533 -81.7439 155° Southeast 189 217 5,600 -600 Descending Miami Center
Sun 12:02:14 PM 27.2042 -81.7208 157° South 189 217 5,000 -300 Descending Miami Center
Sun 12:03:14 PM 27.1547 -81.6978 157° South 189 217 5,000  Level Miami Center
Sun 12:04:14 PM 27.1097 -81.6750 156° South 189 217 5,000  Level Miami Center
Sun 12:05:14 PM 27.0667 -81.6522 155° Southeast 184 212 5,000  Level Miami Center
Sun 12:06:14 PM 27.0206 -81.6525 180° South 174 200 5,000 -250 Level Miami Center
Sun 12:07:14 PM 26.9778 -81.6833 213° Southwest 163 188 4,500 -650 Descending Miami Center
Sun 12:08:14 PM 26.9308 -81.7186 214° Southwest 193 222 3,700 -750 Descending Miami Center
Sun 12:09:14 PM 26.8817 -81.7517 211° Southwest 206 237 3,000 -350 Descending Miami Center
Sun 12:10:14 PM 26.8431 -81.7825 215° Southwest 206 237 3,000  Level Miami Center
Sun 12:11:14 PM 26.8022 -81.8133 214° Southwest 190 219 3,000  Level Miami Center
Sun 12:12:14 PM 26.7617 -81.8419 212° Southwest 185 213 3,000  Level Miami Center
Sun 12:14:00 PM 26.6721 -81.8217 169° South  Level FlightAware Approximate
Sun 12:21:00 PM 26.5833 -81.8500 204° Southwest  Level FlightAware Approximate
Sun 12:22:00 PM 26.5866 -81.8633 204° Southwest  Level Estimated
Sun 12:23:00 PM 26.5866 -81.8633 204° Southwest  Level Estimated

Login

Don't have an account? Register now (free) for customized features, flight alerts, and more!